Startpagina
METAR-TAF:

METAR-TAF

Vliegvelden :

Hévíz, Hongarije

Hévíz-Balaton Airport

breedte: 46-41-11N, lengte: 017-09-33E, hoogte: 124 m

Actueel weer

Dit bericht is 9 uur en het 4 minuten geleden gemaakt, om 15:45 UTC
Wind 12 kt uit het noorden
Temperatuur 0°C
Vochtigheid 86%
Druk 1015 hPa
Zicht: 6000 m
Weinig wolken op 800 ft
Geheel bewolkt op 2000 ft
lichte sneeuw

METAR: LHSM 211545Z 36012KT 6000 -SN FEW008 OVC020 M00/M02 Q1015

Tijdstip: 01:49 (00:49 UTC)

Verwachting

Dit bericht is 13 uur en het 34 minuten geleden gemaakt, om 11:15 UTC
Verwachting geldig van 20 om 12 UTC tot 20 om 21 UTC
Wind 6 kt uit het noordnoordoosten
Zicht: 4000 m
Verspreide wolken op 500 ft
Geheel bewolkt op 1500 ft
lichte sneeuw, nevel
Tijdelijke
van 20 om 12 UTC tot 20 om 21 UTC
Zicht: 0800 m
Gebroken wolken op 200 ft
Geheel bewolkt op 1000 ft
sneeuw

TAF: LHSM 201115Z 2012/2021 02006KT 4000 -SN BR SCT005 OVC015 TEMPO 2012/2021 0800 SN BKN002 OVC010

Waarnemingen en weersverwachtingen van meer dan 4000 vliegvelden (METAR en TAF).

De beschikbare stations zijn de gele en rode punten op de kaart.

Ga met uw muis naar het station om de naam te zien.

Klik dan om waarnemingen en weersverwachtingen te zien.

kaart wijzigen: klik op de groene knoppen met een zwart kruis om in te zoomen, op de groene knop met een streepje om uit te zoomen of op de groene pijlen voor aangrenzende kaarten.


METAR-TAF: